Time;durP1;ratioP1;P1;durP2;ratioP2;P2;SDS_P1;SDS_P2;PMS_P1;PMS_P2;Temp;Humidity;BMP_temperature;BMP_pressure;BME280_temperature;BME280_humidity;BME280_pressure;Samples;Min_cycle;Max_cycle;Signal;HPM_P1;HPM_P2
2022/09/17 00:01:20;;;;;;;;;;;;;;;12.56;62.14;100822.25;5082233;28;19936;-79
2022/09/17 00:03:47;;;;;;;;;;;;;;;12.74;61.50;100828.69;5088167;28;19928;-79
2022/09/17 00:06:13;;;;;;;;;;;;;;;12.57;62.19;100823.97;5089432;28;19928;-79
2022/09/17 00:08:41;;;;;;;;;;;;;;;12.61;62.41;100820.38;5088380;28;19973;-79
2022/09/17 00:11:33;;;;;;;;;;;;;;;12.60;61.80;100829.94;5089236;28;19927;-79
2022/09/17 00:14:00;;;;;;;;;;;;;;;12.64;62.00;100823.75;5085386;28;19932;-79
2022/09/17 00:16:31;;;;;;;;;;;;;;;12.47;62.77;100828.56;5087661;28;19931;-79
2022/09/17 00:18:56;;;;;;;;;;;;;;;12.53;62.77;100824.94;5077104;28;19970;-78
2022/09/17 00:21:22;;;;;;;;;;;;;;;12.46;62.66;100825.97;5090777;28;19947;-79
2022/09/17 00:23:48;;;;;;;;;;;;;;;12.54;62.06;100818.84;5092474;28;19936;-79
2022/09/17 00:26:14;;;;;;;;;;;;;;;12.61;62.45;100833.41;5090932;28;19921;-79
2022/09/17 00:28:40;;;;;;;;;;;;;;;12.60;62.93;100831.72;5090140;28;20404;-79
2022/09/17 00:31:07;;;;;;;;;;;;;;;12.50;61.68;100823.25;5086193;28;19952;-79
2022/09/17 00:33:32;;;;;;;;;;;;;;;12.51;63.01;100824.94;5088929;28;20442;-79
2022/09/17 00:35:59;;;;;;;;;;;;;;;12.65;62.15;100822.00;5090158;28;19959;-79
2022/09/17 00:38:24;;;;;;;;;;;;;;;12.45;63.11;100826.88;5089021;28;20463;-79
2022/09/17 00:40:50;;;;;;;;;;;;;;;12.63;62.42;100827.25;5088400;28;19916;-79
2022/09/17 00:43:31;;;;;;;;;;;;;;;12.66;61.83;100819.34;5087417;28;20026;-79
2022/09/17 00:45:58;;;;;;;;;;;;;;;12.53;62.77;100824.94;5087246;28;19972;-79
2022/09/17 00:48:23;;;;;;;;;;;;;;;12.69;62.97;100825.38;5090392;28;19931;-79
2022/09/17 00:50:49;;;;;;;;;;;;;;;12.87;62.33;100824.84;5074657;28;19920;-79
2022/09/17 00:53:16;;;;;;;;;;;;;;;12.84;62.44;100833.59;5088400;28;20485;-79
2022/09/17 00:55:42;;;;;;;;;;;;;;;12.67;62.51;100830.63;5068759;28;19928;-79
2022/09/17 00:58:09;;;;;;;;;;;;;;;12.69;62.69;100822.78;5087446;28;19928;-79
2022/09/17 01:00:35;;;;;;;;;;;;;;;12.74;62.67;100823.47;5088425;28;19923;-79
2022/09/17 01:03:01;;;;;;;;;;;;;;;12.78;62.78;100825.94;5087209;28;19932;-79
2022/09/17 01:05:39;;;;;;;;;;;;;;;12.81;62.59;100823.25;5070938;28;19924;-79
2022/09/17 01:08:04;;;;;;;;;;;;;;;12.40;63.47;100829.59;5088007;28;19920;-79
2022/09/17 01:10:48;;;;;;;;;;;;;;;12.72;63.12;100830.50;5082981;28;19931;-79
2022/09/17 01:13:37;;;;;;;;;;;;;;;12.69;63.08;100835.81;5086268;28;20593;-79
2022/09/17 01:16:14;;;;;;;;;;;;;;;12.87;62.48;100828.28;5040409;28;20163;-79
2022/09/17 01:18:39;;;;;;;;;;;;;;;12.42;64.40;100835.63;5086537;28;19931;-79
2022/09/17 01:21:06;;;;;;;;;;;;;;;12.62;63.76;100835.97;5086823;28;19928;-79
2022/09/17 01:23:36;;;;;;;;;;;;;;;12.56;63.67;100830.06;5087213;28;19929;-79
2022/09/17 01:26:20;;;;;;;;;;;;;;;12.73;63.01;100829.59;5085264;28;19927;-79
2022/09/17 01:28:51;;;;;;;;;;;;;;;12.34;63.49;100831.50;5066688;28;20308;-79
2022/09/17 01:31:20;;;;;;;;;;;;;;;12.53;63.29;100837.97;5084225;28;19928;-79
2022/09/17 01:34:06;;;;;;;;;;;;;;;12.28;64.36;100831.69;5087405;28;19920;-79
2022/09/17 01:36:34;;;;;;;;;;;;;;;12.13;65.01;100837.31;5073143;28;19974;-79
2022/09/17 01:39:08;;;;;;;;;;;;;;;12.34;65.71;100832.38;5087075;28;19920;-79
2022/09/17 01:41:34;;;;;;;;;;;;;;;12.65;63.65;100835.03;5086182;28;19920;-79
2022/09/17 01:44:07;;;;;;;;;;;;;;;12.42;64.49;100826.97;5086549;28;20282;-79
2022/09/17 01:46:45;;;;;;;;;;;;;;;12.49;64.72;100821.53;5056149;28;20343;-79
2022/09/17 01:49:12;;;;;;;;;;;;;;;12.56;63.76;100832.69;5086110;28;20377;-79
2022/09/17 01:51:39;;;;;;;;;;;;;;;12.29;64.50;100836.00;5070399;28;19924;-79
2022/09/17 01:54:04;;;;;;;;;;;;;;;12.62;63.26;100837.72;5073609;28;19935;-79
2022/09/17 01:56:32;;;;;;;;;;;;;;;12.46;63.69;100839.00;5087592;28;19916;-79
2022/09/17 01:59:06;;;;;;;;;;;;;;;12.47;64.19;100838.13;5086621;28;20308;-79
2022/09/17 02:01:32;;;;;;;;;;;;;;;12.41;63.95;100838.28;5067238;28;19924;-79
2022/09/17 02:04:02;;;;;;;;;;;;;;;12.38;63.61;100844.44;5088060;28;19916;-79
2022/09/17 02:06:34;;;;;;;;;;;;;;;12.60;63.60;100847.34;5087766;28;19924;-79
2022/09/17 02:09:01;;;;;;;;;;;;;;;12.63;63.13;100849.88;5087005;28;20415;-79
2022/09/17 02:11:27;;;;;;;;;;;;;;;12.51;63.21;100845.78;5087024;28;19927;-79
2022/09/17 02:14:13;;;;;;;;;;;;;;;12.42;64.57;100856.47;5083102;28;19925;-79
2022/09/17 02:16:41;;;;;;;;;;;;;;;12.59;64.16;100856.06;5085262;28;19928;-79
2022/09/17 02:19:19;;;;;;;;;;;;;;;12.63;63.28;100849.88;5087440;28;19920;-79
2022/09/17 02:21:49;;;;;;;;;;;;;;;12.01;65.09;100860.16;5086629;28;20003;-76
2022/09/17 02:24:25;;;;;;;;;;;;;;;12.34;64.73;100853.22;5083288;28;19928;-76
2022/09/17 02:27:02;;;;;;;;;;;;;;;12.32;64.10;100860.22;5085481;28;20827;-76
2022/09/17 02:29:32;;;;;;;;;;;;;;;12.44;64.76;100862.50;5085043;28;19995;-76
2022/09/17 02:31:58;;;;;;;;;;;;;;;12.36;64.87;100864.47;5083176;28;20347;-76
2022/09/17 02:34:25;;;;;;;;;;;;;;;12.29;64.97;100860.31;5086515;28;19924;-76
2022/09/17 02:36:51;;;;;;;;;;;;;;;12.57;64.14;100861.28;5087670;28;19965;-76
2022/09/17 02:39:16;;;;;;;;;;;;;;;12.38;64.36;100862.66;5085374;28;20270;-76
2022/09/17 02:41:42;;;;;;;;;;;;;;;12.54;64.08;100863.16;5086134;28;20275;-76
2022/09/17 02:44:07;;;;;;;;;;;;;;;12.33;64.86;100864.56;5084351;28;19920;-76
2022/09/17 02:46:42;;;;;;;;;;;;;;;12.35;64.83;100867.09;5086580;28;19967;-76
2022/09/17 02:49:27;;;;;;;;;;;;;;;12.09;66.02;100868.66;5083122;28;19935;-76
2022/09/17 02:52:03;;;;;;;;;;;;;;;12.20;65.63;100868.34;5032171;28;19994;-76
2022/09/17 02:54:33;;;;;;;;;;;;;;;12.33;64.51;100859.34;5084532;28;19920;-76
2022/09/17 02:57:10;;;;;;;;;;;;;;;12.42;64.32;100860.84;5084796;28;19920;-76
2022/09/17 02:59:53;;;;;;;;;;;;;;;12.53;64.06;100861.44;5084013;28;19921;-76
2022/09/17 03:02:36;;;;;;;;;;;;;;;12.29;65.47;100867.25;5083374;28;20062;-76
2022/09/17 03:05:03;;;;;;;;;;;;;;;12.43;65.37;100862.53;5084877;28;19935;-76
2022/09/17 03:07:28;;;;;;;;;;;;;;;12.49;64.49;100868.44;5084927;28;19928;-76
2022/09/17 03:09:53;;;;;;;;;;;;;;;12.41;64.44;100867.81;5085277;28;19919;-76
2022/09/17 03:12:18;;;;;;;;;;;;;;;12.49;64.65;100862.38;5086277;28;19990;-76
2022/09/17 03:14:44;;;;;;;;;;;;;;;12.48;64.33;100858.91;5085358;28;20058;-76
2022/09/17 03:17:10;;;;;;;;;;;;;;;12.40;64.04;100858.25;5064989;28;19959;-76
2022/09/17 03:19:35;;;;;;;;;;;;;;;12.41;64.87;100867.81;5085516;28;19921;-76
2022/09/17 03:22:00;;;;;;;;;;;;;;;12.21;66.71;100870.09;5086890;28;19923;-76
2022/09/17 03:24:26;;;;;;;;;;;;;;;12.44;66.13;100859.91;5086286;28;19916;-76
2022/09/17 03:26:51;;;;;;;;;;;;;;;12.51;66.07;100863.19;5084597;28;19955;-76
2022/09/17 03:29:16;;;;;;;;;;;;;;;12.53;65.49;100866.66;5083916;28;19935;-75
2022/09/17 03:31:41;;;;;;;;;;;;;;;12.51;65.15;100864.03;5083464;28;20042;-76
2022/09/17 03:34:07;;;;;;;;;;;;;;;12.47;64.50;100862.41;5084165;28;20308;-76
2022/09/17 03:36:32;;;;;;;;;;;;;;;12.37;65.06;100862.69;5086285;28;19924;-76
2022/09/17 03:38:58;;;;;;;;;;;;;;;12.26;66.21;100877.75;5066687;28;19981;-74
2022/09/17 03:41:23;;;;;;;;;;;;;;;12.54;64.87;100866.59;5086422;28;19939;-76
2022/09/17 03:43:49;;;;;;;;;;;;;;;12.50;64.81;100866.69;5085797;28;19924;-76
2022/09/17 03:46:14;;;;;;;;;;;;;;;12.15;65.27;100874.59;5085611;28;20389;-76
2022/09/17 03:48:40;;;;;;;;;;;;;;;12.27;64.67;100869.06;5086169;28;19965;-76
2022/09/17 03:51:05;;;;;;;;;;;;;;;12.46;65.31;100873.72;5084586;28;19928;-76
2022/09/17 03:53:31;;;;;;;;;;;;;;;12.64;64.57;100888.03;5083612;28;19928;-76
2022/09/17 03:55:58;;;;;;;;;;;;;;;12.40;65.36;100878.25;5083254;28;19985;-76
2022/09/17 03:58:23;;;;;;;;;;;;;;;12.37;64.99;100881.78;5084053;28;21203;-76
2022/09/17 04:00:52;;;;;;;;;;;;;;;12.24;65.86;100882.16;5085204;28;19981;-76
2022/09/17 04:03:17;;;;;;;;;;;;;;;12.53;65.01;100875.31;5084641;28;19935;-76
2022/09/17 04:05:42;;;;;;;;;;;;;;;12.49;64.74;100884.06;5086296;28;19916;-76
2022/09/17 04:08:08;;;;;;;;;;;;;;;12.59;64.60;100884.72;5067177;28;19999;-76
2022/09/17 04:10:33;;;;;;;;;;;;;;;12.50;65.00;100882.31;5085746;28;19924;-76
2022/09/17 04:12:58;;;;;;;;;;;;;;;12.43;65.00;100891.19;5086260;28;19928;-76
2022/09/17 04:15:23;;;;;;;;;;;;;;;12.65;64.27;100880.19;5084801;28;20292;-76
2022/09/17 04:17:49;;;;;;;;;;;;;;;12.57;64.65;100882.13;5085751;28;19920;-76
2022/09/17 04:20:14;;;;;;;;;;;;;;;12.42;65.15;100881.69;5085381;28;19919;-76
2022/09/17 04:22:40;;;;;;;;;;;;;;;12.52;64.26;100885.72;5085470;28;19932;-76
2022/09/17 04:25:05;;;;;;;;;;;;;;;12.34;65.38;100884.47;5086049;28;19916;-76
2022/09/17 04:27:31;;;;;;;;;;;;;;;12.49;64.61;100886.69;5086238;28;19928;-76
2022/09/17 04:29:56;;;;;;;;;;;;;;;12.61;64.61;100888.13;5084380;28;19916;-76
2022/09/17 04:32:21;;;;;;;;;;;;;;;12.45;64.69;100889.41;5083256;28;19985;-76
2022/09/17 04:34:47;;;;;;;;;;;;;;;12.40;64.90;100892.13;5084212;28;19934;-76
2022/09/17 04:37:12;;;;;;;;;;;;;;;12.35;64.52;100895.75;5066306;28;20416;-77
2022/09/17 04:39:37;;;;;;;;;;;;;;;12.38;65.53;100891.31;5065811;28;19925;-76
2022/09/17 04:42:02;;;;;;;;;;;;;;;12.34;65.19;100881.88;5083750;28;19970;-76
2022/09/17 04:44:28;;;;;;;;;;;;;;;12.33;65.08;100889.75;5060350;28;19923;-76
2022/09/17 04:46:53;;;;;;;;;;;;;;;12.56;64.66;100895.22;5084125;28;19924;-76
2022/09/17 04:49:18;;;;;;;;;;;;;;;12.41;64.18;100898.19;5087880;28;20560;-76
2022/09/17 04:51:43;;;;;;;;;;;;;;;12.42;64.73;100895.53;5088992;28;20372;-76
2022/09/17 04:54:09;;;;;;;;;;;;;;;12.46;64.30;100896.31;5087619;28;19932;-76
2022/09/17 04:56:34;;;;;;;;;;;;;;;12.33;64.83;100914.03;5086430;28;19995;-76
2022/09/17 04:58:59;;;;;;;;;;;;;;;12.44;64.30;100903.34;5087879;28;19932;-76
2022/09/17 05:01:24;;;;;;;;;;;;;;;12.49;64.10;100904.91;5085512;28;20343;-77
2022/09/17 05:03:50;;;;;;;;;;;;;;;12.44;64.58;100906.78;5087922;28;19924;-76
2022/09/17 05:06:15;;;;;;;;;;;;;;;12.37;65.20;100910.44;5088409;28;19916;-76
2022/09/17 05:08:40;;;;;;;;;;;;;;;12.46;64.56;100905.00;5078076;28;19920;-76
2022/09/17 05:11:05;;;;;;;;;;;;;;;12.24;65.43;100919.50;5088220;28;20030;-76
2022/09/17 05:13:31;;;;;;;;;;;;;;;12.54;64.39;100923.91;5086937;28;20396;-76
2022/09/17 05:15:56;;;;;;;;;;;;;;;12.45;64.47;100913.69;5088304;28;19963;-76
2022/09/17 05:18:22;;;;;;;;;;;;;;;12.66;64.40;100917.53;5073644;28;19924;-76
2022/09/17 05:20:47;;;;;;;;;;;;;;;12.46;65.25;100919.75;5087826;28;19920;-76
2022/09/17 05:23:12;;;;;;;;;;;;;;;12.44;64.59;100917.22;5067100;28;19935;-76
2022/09/17 05:25:38;;;;;;;;;;;;;;;12.27;65.27;100913.34;5068217;28;19920;-77
2022/09/17 05:28:03;;;;;;;;;;;;;;;12.47;64.73;100916.28;5083004;28;19916;-76
2022/09/17 05:30:29;;;;;;;;;;;;;;;12.47;64.88;100917.13;5086389;28;20415;-76
2022/09/17 05:33:01;;;;;;;;;;;;;;;12.57;64.63;100926.44;5084302;28;19924;-76
2022/09/17 05:35:27;;;;;;;;;;;;;;;12.44;64.53;100912.00;5088592;28;20070;-76
2022/09/17 05:37:55;;;;;;;;;;;;;;;12.60;64.99;100923.75;5085846;28;20151;-76
2022/09/17 05:40:20;;;;;;;;;;;;;;;12.55;64.18;100916.94;5068178;28;19920;-76
2022/09/17 05:42:46;;;;;;;;;;;;;;;12.57;64.63;100926.44;5088753;28;19919;-76
2022/09/17 05:45:11;;;;;;;;;;;;;;;12.48;64.93;100929.25;5087915;28;19924;-76
2022/09/17 05:47:36;;;;;;;;;;;;;;;12.53;64.28;100922.22;5088866;28;19956;-76
2022/09/17 05:50:02;;;;;;;;;;;;;;;12.56;63.61;100927.34;5088390;28;19916;-76
2022/09/17 05:52:27;;;;;;;;;;;;;;;12.42;65.15;100936.41;5085316;28;19962;-76
2022/09/17 05:54:53;;;;;;;;;;;;;;;12.49;64.61;100936.19;5087364;28;19935;-76
2022/09/17 05:57:19;;;;;;;;;;;;;;;12.50;64.55;100939.66;5086488;28;19971;-76
2022/09/17 05:59:44;;;;;;;;;;;;;;;12.28;65.09;100941.94;5085123;28;19971;-76
2022/09/17 06:02:12;;;;;;;;;;;;;;;12.24;65.56;100950.75;5084235;28;20674;-76
2022/09/17 06:04:37;;;;;;;;;;;;;;;12.29;65.57;100954.06;5087064;28;19924;-76
2022/09/17 06:07:04;;;;;;;;;;;;;;;12.13;65.81;100959.72;5088186;28;19942;-76
2022/09/17 06:09:30;;;;;;;;;;;;;;;12.41;64.97;100956.38;5086641;28;20053;-76
2022/09/17 06:11:55;;;;;;;;;;;;;;;12.45;65.30;100958.00;5087970;28;20007;-76
2022/09/17 06:14:20;;;;;;;;;;;;;;;12.45;64.61;100958.00;5088092;28;19950;-76
2022/09/17 06:16:45;;;;;;;;;;;;;;;12.52;64.74;100966.50;5086309;28;19923;-76
2022/09/17 06:19:11;;;;;;;;;;;;;;;12.42;65.46;100965.88;5088333;28;19927;-76
2022/09/17 06:21:36;;;;;;;;;;;;;;;12.60;64.86;100968.06;5089812;28;19920;-76
2022/09/17 06:24:01;;;;;;;;;;;;;;;12.68;64.69;100962.66;5088124;28;20303;-76
2022/09/17 06:26:26;;;;;;;;;;;;;;;12.45;65.00;100971.00;5086998;28;19955;-76
2022/09/17 06:28:52;;;;;;;;;;;;;;;12.46;64.28;100967.53;5087886;28;20349;-76
2022/09/17 06:31:17;;;;;;;;;;;;;;;12.76;64.33;100970.25;5085747;28;19986;-77
2022/09/17 06:33:42;;;;;;;;;;;;;;;12.75;63.75;100973.78;5086784;28;19928;-77
2022/09/17 06:36:09;;;;;;;;;;;;;;;12.82;63.98;100965.75;5086591;28;19927;-77
2022/09/17 06:38:35;;;;;;;;;;;;;;;12.65;63.95;100963.59;5087445;28;19935;-77
2022/09/17 06:41:00;;;;;;;;;;;;;;;12.52;64.38;100975.22;5087991;28;19928;-76
2022/09/17 06:43:26;;;;;;;;;;;;;;;12.61;63.46;100961.09;5087889;28;19920;-77
2022/09/17 06:45:52;;;;;;;;;;;;;;;12.68;63.62;100970.47;5086728;28;19924;-76
2022/09/17 06:48:17;;;;;;;;;;;;;;;12.77;63.01;100975.44;5087039;28;21153;-77
2022/09/17 06:50:43;;;;;;;;;;;;;;;12.77;62.54;100966.75;5084591;28;19920;-77
2022/09/17 06:53:08;;;;;;;;;;;;;;;12.72;63.43;100968.66;5065552;28;20014;-75
2022/09/17 06:55:34;;;;;;;;;;;;;;;12.89;62.45;100967.28;5085529;28;19927;-77
2022/09/17 06:57:59;;;;;;;;;;;;;;;12.92;63.23;100969.81;5088491;28;19959;-76
2022/09/17 07:00:25;;;;;;;;;;;;;;;12.81;63.07;100977.06;5084468;28;19920;-77
2022/09/17 07:02:55;;;;;;;;;;;;;;;12.76;63.37;100975.47;5085023;28;19920;-76
2022/09/17 07:05:20;;;;;;;;;;;;;;;12.81;62.84;100979.66;5085263;28;20471;-76
2022/09/17 07:07:45;;;;;;;;;;;;;;;12.69;63.11;100984.38;5085394;28;20075;-76
2022/09/17 07:10:11;;;;;;;;;;;;;;;12.81;62.05;100979.66;5079915;28;20377;-77
2022/09/17 07:12:39;;;;;;;;;;;;;;;13.05;61.80;100988.56;5084681;28;19930;-76
2022/09/17 07:15:04;;;;;;;;;;;;;;;12.66;62.21;100985.31;5082132;28;20066;-76
2022/09/17 07:17:29;;;;;;;;;;;;;;;12.86;61.58;100979.56;5085535;28;20416;-76
2022/09/17 07:19:54;;;;;;;;;;;;;;;12.97;61.02;100977.50;5084989;28;19928;-77
2022/09/17 07:22:20;;;;;;;;;;;;;;;12.66;61.77;100983.53;5084055;28;19985;-77
2022/09/17 07:24:45;;;;;;;;;;;;;;;12.76;61.21;100986.75;5084345;28;19943;-77
2022/09/17 07:27:10;;;;;;;;;;;;;;;12.91;61.16;100983.75;5084213;28;19935;-76
2022/09/17 07:29:36;;;;;;;;;;;;;;;12.82;61.11;100991.81;5062380;28;19975;-77
2022/09/17 07:32:01;;;;;;;;;;;;;;;13.08;60.78;100986.75;5062869;28;19934;-76
2022/09/17 07:34:27;;;;;;;;;;;;;;;12.77;61.24;100995.44;5065047;28;19916;-77
2022/09/17 07:36:53;;;;;;;;;;;;;;;12.87;61.80;100986.50;5085612;28;19959;-76
2022/09/17 07:39:18;;;;;;;;;;;;;;;12.48;62.12;100997.00;5070397;28;20565;-76
2022/09/17 07:41:43;;;;;;;;;;;;;;;12.49;63.66;101003.94;5082998;28;20007;-76
2022/09/17 07:44:09;;;;;;;;;;;;;;;12.60;62.76;101009.75;5084223;28;19920;-76
2022/09/17 07:46:34;;;;;;;;;;;;;;;12.64;62.47;101002.72;5085874;28;19920;-77
2022/09/17 07:49:00;;;;;;;;;;;;;;;12.56;63.11;101002.94;5088117;28;19928;-76
2022/09/17 07:51:29;;;;;;;;;;;;;;;12.50;62.57;101003.03;5086561;28;19916;-76
2022/09/17 07:53:55;;;;;;;;;;;;;;;12.88;62.17;101003.81;5084496;28;20415;-76
2022/09/17 07:56:21;;;;;;;;;;;;;;;12.88;62.23;101004.69;5084557;28;19934;-76
2022/09/17 07:58:46;;;;;;;;;;;;;;;12.94;62.50;101003.66;5084813;28;19916;-77
2022/09/17 08:01:14;;;;;;;;;;;;;;;12.94;62.42;101007.13;5062369;28;20265;-77
2022/09/17 08:03:40;;;;;;;;;;;;;;;13.01;62.28;101000.00;5085931;28;19920;-76
2022/09/17 08:06:05;;;;;;;;;;;;;;;13.09;62.20;100998.03;5084246;28;19935;-76
2022/09/17 08:08:32;;;;;;;;;;;;;;;12.76;62.93;101002.41;5085655;28;19924;-76
2022/09/17 08:11:01;;;;;;;;;;;;;;;12.96;62.41;100999.25;5064856;28;19920;-76
2022/09/17 08:13:27;;;;;;;;;;;;;;;12.90;62.53;100994.22;5081381;28;19932;-77
2022/09/17 08:15:56;;;;;;;;;;;;;;;13.09;62.12;101001.50;5083849;28;19916;-76
2022/09/17 08:18:21;;;;;;;;;;;;;;;13.04;62.51;100992.09;5082739;28;19993;-76
2022/09/17 08:20:47;;;;;;;;;;;;;;;13.24;61.92;100995.00;5061266;28;19928;-76
2022/09/17 08:23:12;;;;;;;;;;;;;;;13.40;60.89;100987.59;5074687;28;19920;-76
2022/09/17 08:25:37;;;;;;;;;;;;;;;13.27;61.03;101000.13;5089907;28;19923;-76
2022/09/17 08:28:02;;;;;;;;;;;;;;;13.09;60.90;101003.25;5086860;28;20014;-76
2022/09/17 08:30:28;;;;;;;;;;;;;;;13.29;60.22;100989.63;5086542;28;19924;-76
2022/09/17 08:32:56;;;;;;;;;;;;;;;13.16;60.22;101003.06;5087505;28;19977;-76
2022/09/17 08:35:23;;;;;;;;;;;;;;;13.13;59.95;100986.63;5088616;28;20680;-76
2022/09/17 08:37:48;;;;;;;;;;;;;;;13.40;59.39;100998.91;5087421;28;20031;-76
2022/09/17 08:40:19;;;;;;;;;;;;;;;13.42;59.28;100989.25;5086915;28;20018;-76
2022/09/17 08:42:50;;;;;;;;;;;;;;;13.30;59.26;100992.22;5069225;28;21051;-76
2022/09/17 08:45:18;;;;;;;;;;;;;;;13.21;58.46;100990.72;5086764;28;19935;-76
2022/09/17 08:47:45;;;;;;;;;;;;;;;13.36;59.02;100999.00;5088218;28;19928;-76
2022/09/17 08:50:15;;;;;;;;;;;;;;;13.35;57.56;100995.53;5087731;28;19922;-76
2022/09/17 08:52:47;;;;;;;;;;;;;;;13.24;58.49;100992.38;5087754;28;19956;-76
2022/09/17 08:55:15;;;;;;;;;;;;;;;13.28;57.48;101001.00;5086623;28;19963;-76
2022/09/17 08:57:43;;;;;;;;;;;;;;;13.29;58.49;101000.94;5085364;28;20039;-76
2022/09/17 09:00:12;;;;;;;;;;;;;;;13.25;58.18;101003.69;5085557;28;20396;-76
2022/09/17 09:02:56;;;;;;;;;;;;;;;13.25;57.68;100999.31;5067224;28;19928;-76
2022/09/17 09:05:25;;;;;;;;;;;;;;;13.04;57.76;101008.59;5081612;28;19924;-76
2022/09/17 09:07:53;;;;;;;;;;;;;;;13.03;57.72;101006.03;5088148;28;19927;-76
2022/09/17 09:10:22;;;;;;;;;;;;;;;13.19;58.19;101002.09;5087253;28;19931;-76
2022/09/17 09:12:48;;;;;;;;;;;;;;;13.05;58.97;100999.00;5086229;28;19991;-76
2022/09/17 09:15:20;;;;;;;;;;;;;;;13.28;58.15;100996.63;5088227;28;19927;-76
2022/09/17 09:17:46;;;;;;;;;;;;;;;13.31;58.05;101001.75;5088946;28;19985;-76
2022/09/17 09:20:16;;;;;;;;;;;;;;;13.35;56.98;100982.50;5086238;28;19923;-76
2022/09/17 09:22:49;;;;;;;;;;;;;;;13.27;56.28;100987.09;5084743;28;19940;-76
2022/09/17 09:25:24;;;;;;;;;;;;;;;13.39;56.77;101001.53;5062263;28;20677;-76
2022/09/17 09:27:49;;;;;;;;;;;;;;;13.34;56.24;100998.22;5086261;28;19916;-76
2022/09/17 09:30:15;;;;;;;;;;;;;;;13.30;56.63;100993.97;5086922;28;19981;-76
2022/09/17 09:33:12;;;;;;;;;;;;;;;13.42;56.71;100991.00;5087255;28;19928;-76
2022/09/17 09:35:40;;;;;;;;;;;;;;;13.26;57.49;101001.03;5088112;28;19924;-76
2022/09/17 09:38:13;;;;;;;;;;;;;;;13.57;57.58;100988.81;5068997;28;19924;-76
2022/09/17 09:40:52;;;;;;;;;;;;;;;13.67;57.02;100992.03;5087097;28;19946;-76
2022/09/17 09:43:20;;;;;;;;;;;;;;;13.69;57.15;100988.47;5087599;28;19920;-76
2022/09/17 09:45:55;;;;;;;;;;;;;;;13.54;56.27;101001.94;5086110;28;19920;-76
2022/09/17 09:48:40;;;;;;;;;;;;;;;13.62;55.84;101001.72;5087607;28;19950;-76
2022/09/17 09:51:08;;;;;;;;;;;;;;;13.51;55.28;100986.38;5085204;28;19928;-76
2022/09/17 09:53:33;;;;;;;;;;;;;;;13.60;54.92;100993.06;5084414;28;19927;-76
2022/09/17 09:56:02;;;;;;;;;;;;;;;13.76;55.59;100995.19;5086390;28;20440;-76
2022/09/17 09:58:34;;;;;;;;;;;;;;;13.69;54.96;100991.09;5086507;28;20384;-76
2022/09/17 10:00:59;;;;;;;;;;;;;;;13.80;54.88;100982.91;5085035;28;20401;-76
2022/09/17 10:03:26;;;;;;;;;;;;;;;13.90;54.94;100984.34;5066656;28;19924;-76
2022/09/17 10:05:52;;;;;;;;;;;;;;;13.97;54.61;100987.59;5083825;28;19964;-76
2022/09/17 10:08:17;;;;;;;;;;;;;;;13.83;54.38;100988.03;5086421;28;20397;-76
2022/09/17 10:10:57;;;;;;;;;;;;;;;13.74;54.72;100990.94;5085766;28;19924;-76
2022/09/17 10:13:23;;;;;;;;;;;;;;;13.73;53.86;100992.69;5083874;28;20042;-76
2022/09/17 10:15:48;;;;;;;;;;;;;;;13.66;54.69;100978.09;5082014;28;20019;-76
2022/09/17 10:18:16;;;;;;;;;;;;;;;13.71;54.04;100970.13;5083853;28;20402;-76
2022/09/17 10:20:51;;;;;;;;;;;;;;;13.96;54.67;100972.84;5083952;28;19976;-76
2022/09/17 10:23:17;;;;;;;;;;;;;;;13.72;53.89;100972.72;5083683;28;19931;-76
2022/09/17 10:25:43;;;;;;;;;;;;;;;13.90;52.67;100970.44;5086458;28;19927;-76
2022/09/17 10:28:41;;;;;;;;;;;;;;;13.89;51.49;100974.78;5086463;28;19928;-76
2022/09/17 10:31:09;;;;;;;;;;;;;;;13.90;52.64;100978.28;5028373;28;20443;-76
2022/09/17 10:33:36;;;;;;;;;;;;;;;13.78;51.03;100966.44;5070293;28;19924;-76
2022/09/17 10:36:07;;;;;;;;;;;;;;;13.76;50.96;100976.94;5086217;28;19924;-76
2022/09/17 10:38:34;;;;;;;;;;;;;;;13.88;51.40;100967.03;5085683;28;19944;-76
2022/09/17 10:41:11;;;;;;;;;;;;;;;13.84;51.96;100973.25;5066759;28;19927;-76
2022/09/17 10:43:36;;;;;;;;;;;;;;;13.80;52.27;100972.47;5086518;28;19938;-76
2022/09/17 10:46:02;;;;;;;;;;;;;;;13.93;52.37;100965.97;5064608;28;19928;-76
2022/09/17 10:48:31;;;;;;;;;;;;;;;14.00;51.48;100977.91;5086095;28;20003;-76
2022/09/17 10:50:57;;;;;;;;;;;;;;;13.96;51.09;100976.31;5085775;28;19924;-76
2022/09/17 10:53:24;;;;;;;;;;;;;;;13.83;50.03;100963.69;5085084;28;19924;-76
2022/09/17 10:55:49;;;;;;;;;;;;;;;13.94;50.24;100966.84;5081720;28;19927;-76
2022/09/17 10:58:22;;;;;;;;;;;;;;;13.65;54.53;100971.16;5085443;28;20134;-76
2022/09/17 11:00:47;;;;;;;;;;;;;;;13.63;55.63;100969.50;5083441;28;19924;-76
2022/09/17 11:03:13;;;;;;;;;;;;;;;13.71;55.07;100978.84;5082627;28;19934;-76
2022/09/17 11:05:56;;;;;;;;;;;;;;;13.62;56.00;100965.16;5085374;28;19924;-76
2022/09/17 11:08:32;;;;;;;;;;;;;;;13.67;55.25;100961.53;5085466;28;20477;-76
2022/09/17 11:11:08;;;;;;;;;;;;;;;13.95;54.32;100969.38;5064962;28;19923;-76
2022/09/17 11:13:47;;;;;;;;;;;;;;;14.05;53.34;100944.69;5085851;28;20383;-76
2022/09/17 11:16:18;;;;;;;;;;;;;;;14.14;54.36;100949.63;5082925;28;20035;-76
2022/09/17 11:18:44;;;;;;;;;;;;;;;14.05;56.26;100959.50;5085188;28;19974;-76
2022/09/17 11:21:15;;;;;;;;;;;;;;;13.93;56.25;100950.31;5085840;28;19963;-76
2022/09/17 11:23:54;;;;;;;;;;;;;;;14.01;56.01;100957.88;5084942;28;20299;-76
2022/09/17 11:26:22;;;;;;;;;;;;;;;14.09;55.48;100942.81;5085642;28;19927;-76
2022/09/17 11:29:11;;;;;;;;;;;;;;;14.15;55.25;100945.22;5086313;28;20008;-76
2022/09/17 11:31:47;;;;;;;;;;;;;;;14.16;53.47;100942.56;5071288;28;20482;-76
2022/09/17 11:34:12;;;;;;;;;;;;;;;14.21;53.66;100951.09;5083185;28;20396;-76
2022/09/17 11:36:58;;;;;;;;;;;;;;;14.28;53.19;100950.00;5087018;28;19994;-76
2022/09/17 11:39:42;;;;;;;;;;;;;;;13.96;50.81;100947.59;5052215;28;19954;-76
2022/09/17 11:42:11;;;;;;;;;;;;;;;14.07;51.27;100950.72;5085192;28;19928;-76
2022/09/17 11:44:41;;;;;;;;;;;;;;;14.16;51.05;100944.31;5084075;28;20031;-76
2022/09/17 11:47:06;;;;;;;;;;;;;;;14.21;50.58;100942.41;5083930;28;19982;-76
2022/09/17 11:49:34;;;;;;;;;;;;;;;14.18;50.14;100930.31;5085124;28;20392;-76
2022/09/17 11:52:10;;;;;;;;;;;;;;;14.33;57.79;100929.78;5082312;28;19927;-76
2022/09/17 11:54:46;;;;;;;;;;;;;;;14.30;50.00;100924.66;5082720;28;20007;-76
2022/09/17 11:57:15;;;;;;;;;;;;;;;14.21;50.31;100942.41;5083882;28;20377;-76
2022/09/17 11:59:50;;;;;;;;;;;;;;;14.17;50.02;100938.22;5086941;28;19920;-76
2022/09/17 12:02:15;;;;;;;;;;;;;;;14.04;50.44;100942.97;5088485;28;20535;-76
2022/09/17 12:04:44;;;;;;;;;;;;;;;13.42;63.37;100984.03;5086985;28;19928;-76
2022/09/17 12:07:21;;;;;;;;;;;;;;;12.96;71.14;100999.25;5087919;28;19930;-76
2022/09/17 12:09:59;;;;;;;;;;;;;;;13.01;73.33;100998.25;5089084;28;20280;-75
2022/09/17 12:12:26;;;;;;;;;;;;;;;13.11;73.93;100984.03;5088113;28;19924;-76
2022/09/17 12:14:51;;;;;;;;;;;;;;;13.12;74.24;100972.72;5089983;28;19928;-76
2022/09/17 12:17:25;;;;;;;;;;;;;;;12.91;73.91;100969.84;5089259;28;19994;-75
2022/09/17 12:19:53;;;;;;;;;;;;;;;12.94;73.68;100960.19;5086213;28;19920;-76
2022/09/17 12:22:23;;;;;;;;;;;;;;;12.86;74.41;100966.53;5087147;28;20396;-76
2022/09/17 12:24:49;;;;;;;;;;;;;;;13.18;73.72;100963.88;5088117;28;19923;-75
2022/09/17 12:27:15;;;;;;;;;;;;;;;13.05;72.77;100963.34;5085776;28;19926;-76
2022/09/17 12:29:43;;;;;;;;;;;;;;;13.11;74.57;100963.19;5089029;28;20003;-75
2022/09/17 12:32:21;;;;;;;;;;;;;;;13.10;71.26;100963.25;5070274;28;20017;-76
2022/09/17 12:34:52;;;;;;;;;;;;;;;12.97;70.21;100964.47;5087674;28;19924;-76
2022/09/17 12:37:37;;;;;;;;;;;;;;;12.98;69.97;100964.44;5087525;28;19971;-76
2022/09/17 12:40:05;;;;;;;;;;;;;;;13.02;70.43;100963.44;5084631;28;20348;-76
2022/09/17 12:42:54;;;;;;;;;;;;;;;12.88;67.82;100968.19;5088211;28;20003;-77